createdAt,value
2023-08-12T00:00:13.443Z,100380.66
2023-08-12T00:02:41.255Z,100380.66
2023-08-12T00:05:08.937Z,100379.34
2023-08-12T00:07:35.637Z,100376.41
2023-08-12T00:10:04.514Z,100373.50
2023-08-12T00:12:34.551Z,100377.16
2023-08-12T00:15:01.286Z,100374.47
2023-08-12T00:17:28.261Z,100376.53
2023-08-12T00:19:54.700Z,100365.50
2023-08-12T00:22:21.274Z,100368.53
2023-08-12T00:24:47.788Z,100365.84
2023-08-12T00:27:14.365Z,100354.03
2023-08-12T00:29:41.009Z,100355.19
2023-08-12T00:32:10.399Z,100350.03
2023-08-12T00:34:37.493Z,100351.97
2023-08-12T00:37:04.043Z,100345.94
2023-08-12T00:39:30.556Z,100345.25
2023-08-12T00:41:57.270Z,100345.69
2023-08-12T00:44:23.813Z,100345.06
2023-08-12T00:46:51.617Z,100357.38
2023-08-12T00:49:18.584Z,100358.78
2023-08-12T00:51:46.359Z,100352.31
2023-08-12T00:54:15.496Z,100356.41
2023-08-12T00:56:42.506Z,100353.69
2023-08-12T00:59:12.973Z,100359.25
2023-08-12T01:01:44.768Z,100356.06
2023-08-12T01:04:11.546Z,100364.88
2023-08-12T01:06:38.123Z,100374.03
2023-08-12T01:09:06.486Z,100383.44
2023-08-12T01:11:42.181Z,100385.66
2023-08-12T01:14:33.419Z,100382.72
2023-08-12T01:17:04.617Z,100384.84
2023-08-12T01:19:36.576Z,100390.72
2023-08-12T01:22:04.781Z,100375.47
2023-08-12T01:24:42.959Z,100373.03
2023-08-12T01:27:11.489Z,100372.41
2023-08-12T01:29:47.676Z,100370.28
2023-08-12T01:32:31.359Z,100368.09
2023-08-12T01:35:17.223Z,100367.13
2023-08-12T01:37:44.343Z,100367.09
2023-08-12T01:40:12.471Z,100374.59
2023-08-12T01:42:41.527Z,100377.59
2023-08-12T01:45:08.531Z,100380.84
2023-08-12T01:47:35.035Z,100379.66
2023-08-12T01:50:01.570Z,100381.06
2023-08-12T01:52:28.150Z,100400.50
2023-08-12T01:54:54.577Z,100396.53
2023-08-12T01:57:21.076Z,100387.75
2023-08-12T01:59:47.612Z,100390.56
2023-08-12T02:02:14.256Z,100395.75
2023-08-12T02:04:43.556Z,100401.09
2023-08-12T02:07:10.288Z,100411.44
2023-08-12T02:09:36.963Z,100425.38
2023-08-12T02:12:03.581Z,100431.00
2023-08-12T02:14:29.998Z,100446.25
2023-08-12T02:16:56.410Z,100464.28
2023-08-12T02:19:22.887Z,100479.13
2023-08-12T02:21:49.346Z,100452.00
2023-08-12T02:24:15.818Z,100455.78
2023-08-12T02:26:42.209Z,100439.00
2023-08-12T02:29:08.678Z,100430.16
2023-08-12T02:31:35.205Z,100418.47
2023-08-12T02:34:01.700Z,100415.88
2023-08-12T02:36:28.121Z,100415.66
2023-08-12T02:38:54.542Z,100425.81
2023-08-12T02:41:20.949Z,100409.38
2023-08-12T02:43:47.395Z,100403.00
2023-08-12T02:46:16.242Z,100395.44
2023-08-12T02:48:43.633Z,100385.09
2023-08-12T02:51:11.224Z,100391.22
2023-08-12T02:53:37.845Z,100385.06
2023-08-12T02:56:04.559Z,100388.72
2023-08-12T02:58:31.172Z,100398.16
2023-08-12T03:00:57.909Z,100397.69
2023-08-12T03:03:24.451Z,100395.97
2023-08-12T03:05:50.961Z,100379.88
2023-08-12T03:08:17.417Z,100341.06
2023-08-12T03:10:46.481Z,100316.50
2023-08-12T03:13:12.925Z,100331.94
2023-08-12T03:15:40.872Z,100342.88
2023-08-12T03:18:07.345Z,100341.72
2023-08-12T03:20:34.144Z,100333.69
2023-08-12T03:23:01.360Z,100335.97
2023-08-12T03:25:27.833Z,100328.97
2023-08-12T03:27:54.253Z,100328.22
2023-08-12T03:30:20.743Z,100331.66
2023-08-12T03:32:47.225Z,100331.09
2023-08-12T03:35:13.654Z,100333.94
2023-08-12T03:37:40.048Z,100321.78
2023-08-12T03:40:07.524Z,100326.78
2023-08-12T03:42:33.993Z,100328.53
2023-08-12T03:45:00.481Z,100315.47
2023-08-12T03:47:26.977Z,100321.50
2023-08-12T03:49:53.466Z,100320.75
2023-08-12T03:52:19.887Z,100325.59
2023-08-12T03:54:46.325Z,100326.25
2023-08-12T03:57:13.460Z,100320.88
2023-08-12T03:59:40.097Z,100318.34
2023-08-12T04:02:06.991Z,100305.06
2023-08-12T04:04:33.431Z,100297.94
2023-08-12T04:06:59.850Z,100305.28
2023-08-12T04:09:26.348Z,100310.69
2023-08-12T04:11:52.808Z,100318.16
2023-08-12T04:14:19.244Z,100320.16
2023-08-12T04:16:45.725Z,100312.69
2023-08-12T04:19:12.154Z,100313.03
2023-08-12T04:21:38.638Z,100312.63
2023-08-12T04:24:05.388Z,100310.09
2023-08-12T04:26:31.882Z,100308.63
2023-08-12T04:28:58.312Z,100309.00
2023-08-12T04:31:24.886Z,100310.53
2023-08-12T04:33:53.815Z,100312.94
2023-08-12T04:36:20.778Z,100312.09
2023-08-12T04:38:47.226Z,100306.78
2023-08-12T04:41:13.679Z,100307.13
2023-08-12T04:43:40.165Z,100306.66
2023-08-12T04:46:06.653Z,100301.88
2023-08-12T04:48:33.208Z,100295.84
2023-08-12T04:51:04.109Z,100291.06
2023-08-12T04:53:30.697Z,100292.81
2023-08-12T04:55:57.838Z,100291.06
2023-08-12T04:58:24.354Z,100285.22
2023-08-12T05:00:53.316Z,100288.00
2023-08-12T05:03:19.907Z,100292.47
2023-08-12T05:05:53.575Z,100291.63
2023-08-12T05:08:20.321Z,100300.34
2023-08-12T05:10:50.266Z,100296.63
2023-08-12T05:13:17.301Z,100295.50
2023-08-12T05:15:48.389Z,100302.63
2023-08-12T05:18:15.379Z,100305.22
2023-08-12T05:20:44.704Z,100311.31
2023-08-12T05:23:13.455Z,100303.44
2023-08-12T05:25:40.553Z,100300.59
2023-08-12T05:28:07.186Z,100304.88
2023-08-12T05:30:33.627Z,100299.56
2023-08-12T05:33:00.193Z,100311.28
2023-08-12T05:35:27.124Z,100303.03
2023-08-12T05:37:54.206Z,100305.94
2023-08-12T05:40:20.641Z,100308.66
2023-08-12T05:42:47.101Z,100299.69
2023-08-12T05:45:13.516Z,100303.53
2023-08-12T05:47:40.068Z,100303.13
2023-08-12T05:50:07.522Z,100305.00
2023-08-12T05:52:34.011Z,100303.44
2023-08-12T05:55:00.531Z,100307.25
2023-08-12T05:57:29.324Z,100313.81
2023-08-12T05:59:56.242Z,100306.59
2023-08-12T06:02:22.697Z,100308.75
2023-08-12T06:04:49.153Z,100309.59
2023-08-12T06:07:15.555Z,100301.75
2023-08-12T06:09:41.954Z,100303.13
2023-08-12T06:12:08.607Z,100305.44
2023-08-12T06:14:38.532Z,100310.56
2023-08-12T06:17:05.061Z,100310.72
2023-08-12T06:19:31.508Z,100322.59
2023-08-12T06:21:58.027Z,100330.53
2023-08-12T06:24:24.615Z,100329.25
2023-08-12T06:26:51.086Z,100324.25
2023-08-12T06:29:17.649Z,100326.06
2023-08-12T06:31:44.091Z,100331.63
2023-08-12T06:34:10.520Z,100329.97
2023-08-12T06:36:36.974Z,100332.75
2023-08-12T06:39:04.522Z,100336.28
2023-08-12T06:41:30.925Z,100337.63
2023-08-12T06:43:57.336Z,100340.59
2023-08-12T06:46:23.871Z,100341.59
2023-08-12T06:48:50.365Z,100337.56
2023-08-12T06:51:16.839Z,100334.22
2023-08-12T06:53:43.305Z,100326.16
2023-08-12T06:56:10.068Z,100328.78
2023-08-12T06:58:36.466Z,100337.00
2023-08-12T07:01:02.979Z,100333.00
2023-08-12T07:03:29.612Z,100335.16
2023-08-12T07:05:56.188Z,100340.44
2023-08-12T07:08:22.687Z,100339.88
2023-08-12T07:10:49.148Z,100347.03
2023-08-12T07:13:15.662Z,100339.75
2023-08-12T07:15:42.117Z,100340.06
2023-08-12T07:18:08.698Z,100332.22
2023-08-12T07:20:35.289Z,100339.41
2023-08-12T07:23:01.768Z,100347.22
2023-08-12T07:25:28.182Z,100349.94
2023-08-12T07:27:54.637Z,100360.75
2023-08-12T07:30:21.104Z,100354.38
2023-08-12T07:32:47.610Z,100344.66
2023-08-12T07:35:14.266Z,100335.75
2023-08-12T07:37:41.030Z,100344.09
2023-08-12T07:40:08.968Z,100348.47
2023-08-12T07:42:35.535Z,100346.41
2023-08-12T07:45:02.009Z,100348.00
2023-08-12T07:47:28.418Z,100353.59
2023-08-12T07:49:54.840Z,100354.94
2023-08-12T07:52:21.501Z,100353.50
2023-08-12T07:54:47.986Z,100351.81
2023-08-12T07:57:14.445Z,100363.94
2023-08-12T07:59:40.902Z,100377.31
2023-08-12T08:02:07.445Z,100373.44
2023-08-12T08:04:34.960Z,100358.47
2023-08-12T08:07:01.677Z,100361.34
2023-08-12T08:09:28.234Z,100365.97
2023-08-12T08:11:56.315Z,100354.06
2023-08-12T08:14:25.636Z,100343.53
2023-08-12T08:16:52.113Z,100353.66
2023-08-12T08:19:19.784Z,100352.03
2023-08-12T08:21:46.552Z,100353.78
2023-08-12T08:24:13.961Z,100345.16
2023-08-12T08:26:41.801Z,100339.63
2023-08-12T08:29:08.371Z,100333.25
2023-08-12T08:31:34.796Z,100335.28
2023-08-12T08:34:01.210Z,100323.63
2023-08-12T08:36:27.612Z,100332.31
2023-08-12T08:38:54.019Z,100336.84
2023-08-12T08:41:20.993Z,100341.38
2023-08-12T08:43:49.208Z,100335.50
2023-08-12T08:46:17.202Z,100345.13
2023-08-12T08:48:44.354Z,100340.28
2023-08-12T08:51:12.055Z,100334.72
2023-08-12T08:53:40.014Z,100333.25
2023-08-12T08:56:14.775Z,100317.78
2023-08-12T08:58:42.029Z,100304.72
2023-08-12T09:01:10.780Z,100302.84
2023-08-12T09:03:39.367Z,100298.22
2023-08-12T09:06:05.977Z,100317.03
2023-08-12T09:08:33.429Z,100305.03
2023-08-12T09:11:02.808Z,100317.47
2023-08-12T09:13:30.087Z,100313.88
2023-08-12T09:15:57.112Z,100328.66
2023-08-12T09:18:25.569Z,100329.66
2023-08-12T09:20:52.707Z,100330.97
2023-08-12T09:23:19.618Z,100318.47
2023-08-12T09:25:46.984Z,100318.34
2023-08-12T09:28:14.316Z,100312.75
2023-08-12T09:30:40.819Z,100318.44
2023-08-12T09:33:09.382Z,100333.78
2023-08-12T09:35:39.824Z,100346.59
2023-08-12T09:38:09.229Z,100360.72
2023-08-12T09:40:36.764Z,100352.72
2023-08-12T09:43:04.222Z,100348.13
2023-08-12T09:45:32.107Z,100354.94
2023-08-12T09:47:58.805Z,100361.97
2023-08-12T09:50:26.886Z,100374.16
2023-08-12T09:52:55.026Z,100373.50
2023-08-12T09:55:24.164Z,100381.44
2023-08-12T09:57:59.667Z,100406.94
2023-08-12T10:00:26.277Z,100426.66
2023-08-12T10:02:53.907Z,100429.06
2023-08-12T10:05:26.987Z,100408.75
2023-08-12T10:07:54.598Z,100372.63
2023-08-12T10:10:23.508Z,100376.69
2023-08-12T10:12:50.811Z,100375.72
2023-08-12T10:15:17.624Z,100369.84
2023-08-12T10:17:45.262Z,100362.97
2023-08-12T10:20:20.857Z,100364.03
2023-08-12T10:22:47.843Z,100355.69
2023-08-12T10:25:15.685Z,100360.06
2023-08-12T10:27:42.526Z,100350.97
2023-08-12T10:30:10.325Z,100367.88
2023-08-12T10:32:37.743Z,100368.41
2023-08-12T10:35:04.738Z,100339.78
2023-08-12T10:37:34.787Z,100335.97
2023-08-12T10:40:08.565Z,100339.75
2023-08-12T10:42:48.417Z,100332.00
2023-08-12T10:45:17.262Z,100324.09
2023-08-12T10:47:49.536Z,100319.44
2023-08-12T10:50:23.266Z,100317.22
2023-08-12T10:52:53.495Z,100317.41
2023-08-12T10:55:24.084Z,100307.72
2023-08-12T10:57:54.359Z,100299.88
2023-08-12T11:00:30.422Z,100297.28
2023-08-12T11:02:57.918Z,100270.56
2023-08-12T11:05:25.788Z,100269.88
2023-08-12T11:08:02.274Z,100269.00
2023-08-12T11:10:34.258Z,100268.13
2023-08-12T11:13:02.501Z,100266.47
2023-08-12T11:15:47.159Z,100248.16
2023-08-12T11:18:17.329Z,100225.66
2023-08-12T11:20:45.063Z,100232.84
2023-08-12T11:23:12.138Z,100228.72
2023-08-12T11:25:41.281Z,100237.22
2023-08-12T11:28:08.695Z,100250.78
2023-08-12T11:30:35.658Z,100241.19
2023-08-12T11:33:03.384Z,100250.41
2023-08-12T11:35:30.685Z,100266.44
2023-08-12T11:37:58.669Z,100266.66
2023-08-12T11:40:27.873Z,100261.53
2023-08-12T11:42:55.475Z,100260.88
2023-08-12T11:45:24.597Z,100267.56
2023-08-12T11:47:54.756Z,100268.09
2023-08-12T11:50:24.634Z,100280.69
2023-08-12T11:52:52.984Z,100291.38
2023-08-12T11:55:20.030Z,100285.50
2023-08-12T11:57:47.133Z,100293.34
2023-08-12T12:00:15.701Z,100288.56
2023-08-12T12:02:51.598Z,100293.69
2023-08-12T12:05:23.560Z,100296.97
2023-08-12T12:07:51.521Z,100301.06
2023-08-12T12:10:27.820Z,100298.63
2023-08-12T12:12:59.489Z,100296.44
2023-08-12T12:15:26.002Z,100297.91
2023-08-12T12:17:53.117Z,100306.25
2023-08-12T12:20:19.749Z,100302.03
2023-08-12T12:22:47.740Z,100292.47
2023-08-12T12:25:17.251Z,100297.78
2023-08-12T12:27:46.490Z,100297.88
2023-08-12T12:30:14.511Z,100301.00
2023-08-12T12:32:41.291Z,100300.94
2023-08-12T12:35:08.598Z,100301.63
2023-08-12T12:37:35.820Z,100299.34
2023-08-12T12:40:04.075Z,100295.00
2023-08-12T12:42:31.564Z,100294.19
2023-08-12T12:44:58.091Z,100297.47
2023-08-12T12:47:24.543Z,100300.34
2023-08-12T12:49:51.031Z,100291.09
2023-08-12T12:52:17.487Z,100290.56
2023-08-12T12:54:44.127Z,100281.22
2023-08-12T12:57:10.629Z,100281.34
2023-08-12T12:59:37.186Z,100281.16
2023-08-12T13:02:03.734Z,100278.00
2023-08-12T13:04:30.980Z,100283.13
2023-08-12T13:06:57.566Z,100276.44
2023-08-12T13:09:23.962Z,100268.28
2023-08-12T13:11:50.479Z,100268.09
2023-08-12T13:14:20.034Z,100270.56
2023-08-12T13:16:46.759Z,100284.63
2023-08-12T13:19:13.177Z,100274.25
2023-08-12T13:21:43.024Z,100287.00
2023-08-12T13:24:09.494Z,100261.53
2023-08-12T13:26:35.926Z,100268.06
2023-08-12T13:29:02.434Z,100272.75
2023-08-12T13:31:28.987Z,100266.84
2023-08-12T13:33:55.467Z,100267.41
2023-08-12T13:36:21.939Z,100275.22
2023-08-12T13:38:48.433Z,100276.56
2023-08-12T13:41:14.926Z,100280.00
2023-08-12T13:43:41.381Z,100281.22
2023-08-12T13:46:07.913Z,100278.34
2023-08-12T13:48:34.369Z,100275.50
2023-08-12T13:51:01.928Z,100267.19
2023-08-12T13:53:28.794Z,100268.22
2023-08-12T13:55:55.333Z,100275.22
2023-08-12T13:58:21.826Z,100267.94
2023-08-12T14:00:48.686Z,100268.88
2023-08-12T14:03:16.383Z,100268.38
2023-08-12T14:05:43.556Z,100266.84
2023-08-12T14:08:10.129Z,100267.88
2023-08-12T14:10:36.602Z,100256.66
2023-08-12T14:13:03.195Z,100250.09
2023-08-12T14:15:29.717Z,100240.25
2023-08-12T14:17:56.201Z,100228.69
2023-08-12T14:20:22.664Z,100223.78
2023-08-12T14:22:49.087Z,100228.41
2023-08-12T14:25:15.584Z,100227.44
2023-08-12T14:27:42.068Z,100237.63
2023-08-12T14:30:09.243Z,100237.47
2023-08-12T14:32:35.799Z,100240.19
2023-08-12T14:35:02.316Z,100241.59
2023-08-12T14:37:28.957Z,100236.09
2023-08-12T14:39:55.908Z,100235.28
2023-08-12T14:42:22.609Z,100239.06
2023-08-12T14:44:49.679Z,100235.91
2023-08-12T14:47:16.474Z,100224.84
2023-08-12T14:49:43.115Z,100232.06
2023-08-12T14:52:20.054Z,100225.50
2023-08-12T14:54:47.872Z,100226.59
2023-08-12T14:57:14.567Z,100232.06
2023-08-12T14:59:41.209Z,100224.31
2023-08-12T15:02:08.152Z,100226.44
2023-08-12T15:04:35.304Z,100230.31
2023-08-12T15:07:02.261Z,100232.00
2023-08-12T15:09:28.811Z,100223.97
2023-08-12T15:11:55.264Z,100235.78
2023-08-12T15:14:21.778Z,100232.88
2023-08-12T15:16:48.295Z,100235.31
2023-08-12T15:19:14.789Z,100240.22
2023-08-12T15:21:41.198Z,100229.50
2023-08-12T15:24:07.985Z,100234.59
2023-08-12T15:26:34.448Z,100231.00
2023-08-12T15:29:01.072Z,100230.31
2023-08-12T15:31:27.591Z,100225.41
2023-08-12T15:33:54.027Z,100221.13
2023-08-12T15:36:20.771Z,100229.88
2023-08-12T15:38:48.746Z,100234.19
2023-08-12T15:41:17.131Z,100230.56
2023-08-12T15:43:44.550Z,100233.91
2023-08-12T15:46:11.475Z,100228.16
2023-08-12T15:48:38.068Z,100242.34
2023-08-12T15:51:04.635Z,100242.34
2023-08-12T15:53:31.275Z,100238.25
2023-08-12T15:55:57.845Z,100237.00
2023-08-12T15:58:25.292Z,100239.56
2023-08-12T16:00:52.825Z,100233.88
2023-08-12T16:03:20.540Z,100232.44
2023-08-12T16:05:48.390Z,100228.09
2023-08-12T16:08:15.042Z,100224.41
2023-08-12T16:10:41.562Z,100227.09
2023-08-12T16:13:08.066Z,100226.06
2023-08-12T16:15:34.574Z,100218.03
2023-08-12T16:18:01.050Z,100230.06
2023-08-12T16:20:27.498Z,100232.69
2023-08-12T16:22:54.022Z,100232.25
2023-08-12T16:25:20.494Z,100241.94
2023-08-12T16:27:46.947Z,100241.66
2023-08-12T16:30:13.874Z,100250.16
2023-08-12T16:32:40.380Z,100250.78
2023-08-12T16:35:07.097Z,100247.47
2023-08-12T16:37:35.596Z,100254.06
2023-08-12T16:40:02.050Z,100258.66
2023-08-12T16:42:28.558Z,100269.19
2023-08-12T16:44:55.038Z,100263.91
2023-08-12T16:47:21.464Z,100256.88
2023-08-12T16:49:47.873Z,100264.13
2023-08-12T16:52:14.578Z,100255.06
2023-08-12T16:54:41.315Z,100256.47
2023-08-12T16:57:08.742Z,100259.88
2023-08-12T16:59:35.800Z,100265.69
2023-08-12T17:02:02.491Z,100264.25
2023-08-12T17:04:28.941Z,100270.06
2023-08-12T17:06:55.368Z,100259.50
2023-08-12T17:09:21.827Z,100270.69
2023-08-12T17:11:48.247Z,100267.09
2023-08-12T17:14:14.629Z,100269.88
2023-08-12T17:16:41.356Z,100263.41
2023-08-12T17:19:07.962Z,100265.28
2023-08-12T17:21:34.549Z,100265.84
2023-08-12T17:24:01.161Z,100273.56
2023-08-12T17:26:27.645Z,100278.47
2023-08-12T17:28:54.149Z,100271.00
2023-08-12T17:31:20.675Z,100281.19
2023-08-12T17:33:47.282Z,100278.16
2023-08-12T17:36:13.762Z,100266.28
2023-08-12T17:38:40.606Z,100269.28
2023-08-12T17:41:07.064Z,100270.28
2023-08-12T17:43:33.469Z,100270.84
2023-08-12T17:46:00.043Z,100271.41
2023-08-12T17:48:26.572Z,100271.88
2023-08-12T17:50:52.978Z,100274.16
2023-08-12T17:53:19.547Z,100269.72
2023-08-12T17:55:46.297Z,100272.03
2023-08-12T17:58:12.750Z,100275.16
2023-08-12T18:00:39.289Z,100271.97
2023-08-12T18:03:05.961Z,100277.56
2023-08-12T18:05:32.497Z,100279.91
2023-08-12T18:07:58.926Z,100282.47
2023-08-12T18:10:27.138Z,100287.44
2023-08-12T18:12:53.620Z,100289.56
2023-08-12T18:15:20.048Z,100298.16
2023-08-12T18:17:46.493Z,100290.09
2023-08-12T18:20:13.163Z,100307.28
2023-08-12T18:22:39.898Z,100303.56
2023-08-12T18:25:06.427Z,100309.25
2023-08-12T18:27:32.862Z,100305.81
2023-08-12T18:30:01.503Z,100309.91
2023-08-12T18:32:29.501Z,100306.41
2023-08-12T18:34:56.479Z,100304.69
2023-08-12T18:37:22.984Z,100300.41
2023-08-12T18:39:49.621Z,100305.22
2023-08-12T18:42:16.113Z,100305.84
2023-08-12T18:44:42.597Z,100311.38
2023-08-12T18:47:09.156Z,100315.50
2023-08-12T18:49:35.598Z,100313.03
2023-08-12T18:52:02.067Z,100322.91
2023-08-12T18:54:28.507Z,100320.31
2023-08-12T18:56:54.936Z,100318.38
2023-08-12T18:59:23.262Z,100319.09
2023-08-12T19:01:51.112Z,100320.16
2023-08-12T19:04:17.782Z,100328.88
2023-08-12T19:06:45.166Z,100332.97
2023-08-12T19:09:11.769Z,100332.38
2023-08-12T19:11:38.262Z,100335.41
2023-08-12T19:14:04.857Z,100337.13
2023-08-12T19:16:31.544Z,100343.91
2023-08-12T19:18:59.224Z,100345.41
2023-08-12T19:21:25.674Z,100340.25
2023-08-12T19:23:52.104Z,100343.81
2023-08-12T19:26:18.861Z,100347.78
2023-08-12T19:28:45.451Z,100348.69
2023-08-12T19:31:13.292Z,100347.69
2023-08-12T19:33:40.098Z,100359.88
2023-08-12T19:36:07.019Z,100357.81
2023-08-12T19:38:33.593Z,100360.25
2023-08-12T19:41:00.682Z,100355.69
2023-08-12T19:43:27.227Z,100373.28
2023-08-12T19:45:53.689Z,100369.00
2023-08-12T19:48:20.253Z,100364.44
2023-08-12T19:50:47.975Z,100376.28
2023-08-12T19:53:14.457Z,100379.59
2023-08-12T19:55:41.014Z,100371.72
2023-08-12T19:58:07.541Z,100387.22
2023-08-12T20:00:34.093Z,100381.44
2023-08-12T20:03:00.590Z,100384.03
2023-08-12T20:05:29.358Z,100392.03
2023-08-12T20:07:55.976Z,100388.78
2023-08-12T20:10:22.601Z,100388.94
2023-08-12T20:12:49.468Z,100394.69
2023-08-12T20:15:16.930Z,100394.34
2023-08-12T20:17:44.384Z,100390.81
2023-08-12T20:20:18.196Z,100390.97
2023-08-12T20:22:58.925Z,100396.25
2023-08-12T20:25:26.317Z,100397.72
2023-08-12T20:27:52.750Z,100392.28
2023-08-12T20:30:19.199Z,100391.66
2023-08-12T20:32:45.661Z,100385.13
2023-08-12T20:35:12.123Z,100394.41
2023-08-12T20:37:38.549Z,100401.31
2023-08-12T20:40:06.055Z,100395.97
2023-08-12T20:42:33.684Z,100404.44
2023-08-12T20:45:00.367Z,100407.22
2023-08-12T20:47:27.202Z,100396.09
2023-08-12T20:49:53.690Z,100416.16
2023-08-12T20:52:20.353Z,100416.25
2023-08-12T20:54:46.789Z,100416.72
2023-08-12T20:57:14.245Z,100418.06
2023-08-12T20:59:40.906Z,100411.59
2023-08-12T21:02:08.119Z,100418.22
2023-08-12T21:04:34.726Z,100412.81
2023-08-12T21:07:01.784Z,100417.16
2023-08-12T21:09:28.448Z,100410.78
2023-08-12T21:11:55.005Z,100420.44
2023-08-12T21:14:21.435Z,100417.81
2023-08-12T21:16:48.079Z,100423.84
2023-08-12T21:19:14.533Z,100419.66
2023-08-12T21:21:41.661Z,100430.97
2023-08-12T21:24:08.292Z,100423.13
2023-08-12T21:26:34.845Z,100417.81
2023-08-12T21:29:01.472Z,100431.41
2023-08-12T21:31:28.063Z,100434.50
2023-08-12T21:33:54.536Z,100426.38
2023-08-12T21:36:20.979Z,100427.16
2023-08-12T21:38:47.496Z,100433.56
2023-08-12T21:41:13.947Z,100423.97
2023-08-12T21:43:40.384Z,100430.84
2023-08-12T21:46:06.855Z,100432.28
2023-08-12T21:48:33.313Z,100428.22
2023-08-12T21:50:59.782Z,100435.91
2023-08-12T21:53:26.227Z,100446.03
2023-08-12T21:55:52.617Z,100437.28
2023-08-12T21:58:19.012Z,100440.88
2023-08-12T22:00:45.425Z,100443.31
2023-08-12T22:03:11.961Z,100442.69
2023-08-12T22:05:38.436Z,100432.91
2023-08-12T22:08:05.205Z,100442.41
2023-08-12T22:10:31.681Z,100441.41
2023-08-12T22:12:58.175Z,100448.53
2023-08-12T22:15:24.632Z,100443.75
2023-08-12T22:17:51.192Z,100440.78
2023-08-12T22:20:18.526Z,100433.47
2023-08-12T22:22:45.083Z,100439.19
2023-08-12T22:25:11.580Z,100430.94
2023-08-12T22:27:38.064Z,100431.09
2023-08-12T22:30:06.218Z,100433.94
2023-08-12T22:32:32.732Z,100431.56
2023-08-12T22:34:59.182Z,100436.22
2023-08-12T22:37:25.768Z,100436.16
2023-08-12T22:39:52.277Z,100432.88
2023-08-12T22:42:18.737Z,100420.84
2023-08-12T22:44:45.178Z,100423.41
2023-08-12T22:47:11.645Z,100428.59
2023-08-12T22:49:38.054Z,100415.78
2023-08-12T22:52:05.005Z,100423.41
2023-08-12T22:54:31.468Z,100414.19
2023-08-12T22:56:57.929Z,100416.16
2023-08-12T22:59:24.447Z,100402.97
2023-08-12T23:01:50.852Z,100408.84
2023-08-12T23:04:17.373Z,100408.47
2023-08-12T23:06:43.835Z,100411.22
2023-08-12T23:09:10.320Z,100424.53
2023-08-12T23:11:37.192Z,100414.75
2023-08-12T23:14:03.958Z,100415.78
2023-08-12T23:16:31.701Z,100421.50
2023-08-12T23:18:58.279Z,100409.69
2023-08-12T23:21:24.768Z,100407.66
2023-08-12T23:23:55.208Z,100407.84
2023-08-12T23:26:22.270Z,100414.00
2023-08-12T23:28:48.853Z,100410.84
2023-08-12T23:31:15.363Z,100407.09
2023-08-12T23:33:41.858Z,100407.84
2023-08-12T23:36:08.246Z,100412.03
2023-08-12T23:38:34.686Z,100418.44
2023-08-12T23:41:01.161Z,100412.28
2023-08-12T23:43:27.586Z,100416.84
2023-08-12T23:45:59.446Z,100407.47
2023-08-12T23:48:25.973Z,100403.22
2023-08-12T23:50:52.525Z,100404.63
2023-08-12T23:53:19.131Z,100404.84
2023-08-12T23:55:45.706Z,100406.97
2023-08-12T23:58:12.766Z,100408.19
